Ana Sayfa
METAR-TAF:

METAR-TAF

Havaalanları :

Lublin, Polonya

Enlem: 51-13-55N, Boylam: 22-41-25E, yükseklik: 203 m

Güncel hava durumu gözlemi

Rapor saat 05:30 UTC de 33 dakika önce yapıldı.
Rüzgar batıdan 5 kt
Sıcaklık -3°C
Nem 93%
Basınç 1022 hPa
Görüş mesafesi 10 km veya daha fazla
1500 m altında bulut yok ve kümülonimbus yok

METAR: EPLB 010530Z 27005KT CAVOK M03/M04 Q1022

Saat: 08:03 (06:03 UTC)

Tahmin

Rapor saat 05:30 UTC de 33 dakika önce yapıldı.
Ayın 01'si saat 06 UTC'den ayın 01'si saat 15 UTC'ye kadar geçerli Tahmin
Rüzgar batıdan 10 kt
Görüş mesafesi 10 km veya daha fazla
1500 m altında bulut yok ve kümülonimbus yok

TAF: EPLB 010530Z 0106/0115 27010KT CAVOK

4.000'den fazla havaalanı için hava durumu gözlemleri ve tahminleri (METAR ve TAF raporları).

Kullanılabilir istasyonlar harita üzerinde sarı ve kırmızı noktalarla gösterilir.

İstasyonun adını görmek için fareyi noktanın üzerinde gezdirin.

Sonrasında hava gözlem ve tahminlerini görmek için tıklayın.

Haritayı değiştirmek için: yaklaştırmak için siyah artı işaretli yeşil düğmeye ve uzaklaştırmak için de eksi işaretli düğmeye hızla tıklayın; bitişik haritalar için yeşil okları kullanın.


METAR-TAF: